sensor_id;sensor_type;location;lat;lon;timestamp;pressure;altitude;pressure_sealevel;temperature;humidity
33280;BME280;20403;43.114;12.434;2023-11-19T00:02:07;99924.69;;;5.63;100.00
33280;BME280;20403;43.114;12.434;2023-11-19T00:04:36;99939.75;;;5.91;100.00
33280;BME280;20403;43.114;12.434;2023-11-19T00:07:02;99934.28;;;5.86;100.00
33280;BME280;20403;43.114;12.434;2023-11-19T00:09:29;99936.53;;;5.97;100.00
33280;BME280;20403;43.114;12.434;2023-11-19T00:11:55;99926.31;;;6.04;100.00
33280;BME280;20403;43.114;12.434;2023-11-19T00:14:20;99916.31;;;6.01;100.00
33280;BME280;20403;43.114;12.434;2023-11-19T00:16:46;99909.25;;;6.09;100.00
33280;BME280;20403;43.114;12.434;2023-11-19T00:19:11;99907.59;;;6.17;100.00
33280;BME280;20403;43.114;12.434;2023-11-19T00:21:37;99910.72;;;5.81;100.00
33280;BME280;20403;43.114;12.434;2023-11-19T00:24:02;99909.44;;;5.77;100.00
33280;BME280;20403;43.114;12.434;2023-11-19T00:26:29;99911.09;;;5.69;100.00
33280;BME280;20403;43.114;12.434;2023-11-19T00:28:55;99917.16;;;5.85;100.00
33280;BME280;20403;43.114;12.434;2023-11-19T00:31:21;99904.75;;;5.80;100.00
33280;BME280;20403;43.114;12.434;2023-11-19T00:33:47;99901.91;;;5.67;100.00
33280;BME280;20403;43.114;12.434;2023-11-19T00:36:12;99894.16;;;5.90;100.00
33280;BME280;20403;43.114;12.434;2023-11-19T00:38:38;99889.94;;;5.97;100.00
33280;BME280;20403;43.114;12.434;2023-11-19T00:41:04;99897.06;;;5.95;100.00
33280;BME280;20403;43.114;12.434;2023-11-19T00:43:29;99902.38;;;6.02;100.00
33280;BME280;20403;43.114;12.434;2023-11-19T00:45:54;99897.94;;;5.79;100.00
33280;BME280;20403;43.114;12.434;2023-11-19T00:48:20;99894.38;;;5.80;100.00
33280;BME280;20403;43.114;12.434;2023-11-19T00:50:45;99892.88;;;5.94;100.00
33280;BME280;20403;43.114;12.434;2023-11-19T00:53:11;99898.19;;;5.93;100.00
33280;BME280;20403;43.114;12.434;2023-11-19T00:55:37;99892.38;;;5.90;100.00
33280;BME280;20403;43.114;12.434;2023-11-19T00:58:02;99892.38;;;5.90;100.00
33280;BME280;20403;43.114;12.434;2023-11-19T01:00:28;99891.84;;;5.72;100.00
33280;BME280;20403;43.114;12.434;2023-11-19T01:02:54;99900.88;;;5.76;100.00
33280;BME280;20403;43.114;12.434;2023-11-19T01:05:20;99905.97;;;5.93;100.00
33280;BME280;20403;43.114;12.434;2023-11-19T01:07:48;99901.38;;;6.03;100.00
33280;BME280;20403;43.114;12.434;2023-11-19T01:10:14;99886.84;;;6.02;100.00
33280;BME280;20403;43.114;12.434;2023-11-19T01:12:41;99880.94;;;5.85;100.00
33280;BME280;20403;43.114;12.434;2023-11-19T01:15:07;99886.13;;;5.85;100.00
33280;BME280;20403;43.114;12.434;2023-11-19T01:17:33;99886.44;;;5.82;100.00
33280;BME280;20403;43.114;12.434;2023-11-19T01:19:58;99884.16;;;5.87;100.00
33280;BME280;20403;43.114;12.434;2023-11-19T01:22:24;99883.31;;;5.95;100.00
33280;BME280;20403;43.114;12.434;2023-11-19T01:24:49;99875.66;;;5.70;100.00
33280;BME280;20403;43.114;12.434;2023-11-19T01:27:15;99885.22;;;5.69;100.00
33280;BME280;20403;43.114;12.434;2023-11-19T01:29:40;99875.44;;;5.80;100.00
33280;BME280;20403;43.114;12.434;2023-11-19T01:32:08;99868.63;;;5.56;100.00
33280;BME280;20403;43.114;12.434;2023-11-19T01:34:33;99873.91;;;5.31;100.00
33280;BME280;20403;43.114;12.434;2023-11-19T01:36:58;99876.06;;;5.59;100.00
33280;BME280;20403;43.114;12.434;2023-11-19T01:39:24;99881.06;;;5.60;100.00
33280;BME280;20403;43.114;12.434;2023-11-19T01:41:49;99883.59;;;5.37;100.00
33280;BME280;20403;43.114;12.434;2023-11-19T01:44:15;99885.41;;;5.29;100.00
33280;BME280;20403;43.114;12.434;2023-11-19T01:46:44;99877.28;;;5.40;100.00
33280;BME280;20403;43.114;12.434;2023-11-19T01:49:10;99879.16;;;5.54;100.00
33280;BME280;20403;43.114;12.434;2023-11-19T01:51:38;99873.97;;;5.54;100.00
33280;BME280;20403;43.114;12.434;2023-11-19T01:54:04;99869.00;;;5.44;100.00
33280;BME280;20403;43.114;12.434;2023-11-19T01:56:30;99868.13;;;5.60;100.00
33280;BME280;20403;43.114;12.434;2023-11-19T01:58:56;99872.00;;;5.64;100.00
33280;BME280;20403;43.114;12.434;2023-11-19T02:01:22;99875.88;;;5.60;100.00
33280;BME280;20403;43.114;12.434;2023-11-19T02:03:47;99867.47;;;5.66;100.00
33280;BME280;20403;43.114;12.434;2023-11-19T02:06:13;99851.00;;;5.59;100.00
33280;BME280;20403;43.114;12.434;2023-11-19T02:08:39;99841.75;;;5.34;100.00
33280;BME280;20403;43.114;12.434;2023-11-19T02:11:05;99859.34;;;5.38;100.00
33280;BME280;20403;43.114;12.434;2023-11-19T02:13:32;99857.59;;;5.31;100.00
33280;BME280;20403;43.114;12.434;2023-11-19T02:15:59;99857.16;;;5.19;100.00
33280;BME280;20403;43.114;12.434;2023-11-19T02:18:27;99853.56;;;5.28;100.00
33280;BME280;20403;43.114;12.434;2023-11-19T02:20:54;99838.28;;;5.18;100.00
33280;BME280;20403;43.114;12.434;2023-11-19T02:23:20;99853.03;;;5.41;100.00
33280;BME280;20403;43.114;12.434;2023-11-19T02:28:30;99862.09;;;5.37;100.00
33280;BME280;20403;43.114;12.434;2023-11-19T02:30:58;99857.88;;;5.36;100.00
33280;BME280;20403;43.114;12.434;2023-11-19T02:33:23;99859.66;;;5.43;100.00
33280;BME280;20403;43.114;12.434;2023-11-19T02:35:50;99863.78;;;5.21;100.00
33280;BME280;20403;43.114;12.434;2023-11-19T02:38:16;99867.72;;;5.40;100.00
33280;BME280;20403;43.114;12.434;2023-11-19T02:40:42;99872.16;;;5.32;100.00
33280;BME280;20403;43.114;12.434;2023-11-19T02:43:07;99873.88;;;5.39;100.00
33280;BME280;20403;43.114;12.434;2023-11-19T02:45:33;99860.09;;;5.55;100.00
33280;BME280;20403;43.114;12.434;2023-11-19T02:47:59;99854.13;;;5.46;100.00
33280;BME280;20403;43.114;12.434;2023-11-19T02:50:27;99846.59;;;5.37;100.00
33280;BME280;20403;43.114;12.434;2023-11-19T02:52:56;99858.66;;;5.44;100.00
33280;BME280;20403;43.114;12.434;2023-11-19T02:55:21;99859.44;;;5.53;100.00
33280;BME280;20403;43.114;12.434;2023-11-19T02:57:49;99849.59;;;5.48;100.00
33280;BME280;20403;43.114;12.434;2023-11-19T03:00:19;99854.91;;;5.55;100.00
33280;BME280;20403;43.114;12.434;2023-11-19T03:02:49;99861.16;;;5.61;100.00
33280;BME280;20403;43.114;12.434;2023-11-19T03:05:24;99866.81;;;5.64;100.00
33280;BME280;20403;43.114;12.434;2023-11-19T03:07:49;99866.16;;;5.31;100.00
33280;BME280;20403;43.114;12.434;2023-11-19T03:10:15;99860.28;;;5.45;100.00
33280;BME280;20403;43.114;12.434;2023-11-19T03:12:41;99843.28;;;5.51;100.00
33280;BME280;20403;43.114;12.434;2023-11-19T03:15:07;99842.78;;;5.24;100.00
33280;BME280;20403;43.114;12.434;2023-11-19T03:17:41;99850.75;;;5.07;100.00
33280;BME280;20403;43.114;12.434;2023-11-19T03:20:09;99837.06;;;5.29;100.00
33280;BME280;20403;43.114;12.434;2023-11-19T03:22:36;99823.06;;;5.23;100.00
33280;BME280;20403;43.114;12.434;2023-11-19T03:25:03;99823.75;;;5.09;100.00
33280;BME280;20403;43.114;12.434;2023-11-19T03:27:29;99816.16;;;5.08;100.00
33280;BME280;20403;43.114;12.434;2023-11-19T03:29:54;99811.22;;;4.90;100.00
33280;BME280;20403;43.114;12.434;2023-11-19T03:32:20;99804.75;;;4.94;100.00
33280;BME280;20403;43.114;12.434;2023-11-19T03:34:45;99806.44;;;4.78;100.00
33280;BME280;20403;43.114;12.434;2023-11-19T03:37:11;99805.94;;;4.83;100.00
33280;BME280;20403;43.114;12.434;2023-11-19T03:39:37;99800.53;;;5.01;100.00
33280;BME280;20403;43.114;12.434;2023-11-19T03:42:02;99796.22;;;4.85;100.00
33280;BME280;20403;43.114;12.434;2023-11-19T03:44:28;99797.22;;;4.76;100.00
33280;BME280;20403;43.114;12.434;2023-11-19T03:46:54;99796.28;;;4.69;100.00
33280;BME280;20403;43.114;12.434;2023-11-19T03:49:19;99792.03;;;4.84;100.00
33280;BME280;20403;43.114;12.434;2023-11-19T03:51:44;99790.72;;;4.88;100.00
33280;BME280;20403;43.114;12.434;2023-11-19T03:54:10;99790.66;;;5.04;100.00
33280;BME280;20403;43.114;12.434;2023-11-19T03:56:36;99795.50;;;5.08;100.00
33280;BME280;20403;43.114;12.434;2023-11-19T03:59:02;99800.41;;;5.25;100.00
33280;BME280;20403;43.114;12.434;2023-11-19T04:01:28;99796.56;;;5.21;100.00
33280;BME280;20403;43.114;12.434;2023-11-19T04:03:53;99797.50;;;5.29;100.00
33280;BME280;20403;43.114;12.434;2023-11-19T04:06:21;99799.16;;;5.21;100.00
33280;BME280;20403;43.114;12.434;2023-11-19T04:08:46;99807.47;;;5.00;100.00
33280;BME280;20403;43.114;12.434;2023-11-19T04:11:12;99805.38;;;5.04;100.00
33280;BME280;20403;43.114;12.434;2023-11-19T04:13:37;99803.47;;;4.90;100.00
33280;BME280;20403;43.114;12.434;2023-11-19T04:16:03;99805.25;;;4.89;100.00
33280;BME280;20403;43.114;12.434;2023-11-19T04:18:29;99795.41;;;4.84;100.00
33280;BME280;20403;43.114;12.434;2023-11-19T04:20:54;99787.50;;;4.86;100.00
33280;BME280;20403;43.114;12.434;2023-11-19T04:23:20;99780.56;;;4.87;100.00
33280;BME280;20403;43.114;12.434;2023-11-19T04:25:45;99774.88;;;4.91;100.00
33280;BME280;20403;43.114;12.434;2023-11-19T04:28:11;99778.03;;;4.78;100.00
33280;BME280;20403;43.114;12.434;2023-11-19T04:30:36;99780.63;;;4.62;100.00
33280;BME280;20403;43.114;12.434;2023-11-19T04:33:03;99778.09;;;4.93;100.00
33280;BME280;20403;43.114;12.434;2023-11-19T04:35:28;99768.19;;;5.05;100.00
33280;BME280;20403;43.114;12.434;2023-11-19T04:37:53;99771.53;;;4.82;100.00
33280;BME280;20403;43.114;12.434;2023-11-19T04:40:22;99771.28;;;4.69;100.00
33280;BME280;20403;43.114;12.434;2023-11-19T04:42:48;99771.22;;;4.77;100.00
33280;BME280;20403;43.114;12.434;2023-11-19T04:45:13;99777.44;;;4.99;100.00
33280;BME280;20403;43.114;12.434;2023-11-19T04:47:39;99778.53;;;5.05;100.00
33280;BME280;20403;43.114;12.434;2023-11-19T04:50:05;99777.91;;;5.03;100.00
33280;BME280;20403;43.114;12.434;2023-11-19T04:52:30;99781.59;;;5.09;100.00
33280;BME280;20403;43.114;12.434;2023-11-19T04:54:56;99782.63;;;4.91;100.00
33280;BME280;20403;43.114;12.434;2023-11-19T04:57:21;99783.28;;;4.85;100.00
33280;BME280;20403;43.114;12.434;2023-11-19T04:59:47;99781.94;;;5.05;100.00
33280;BME280;20403;43.114;12.434;2023-11-19T05:02:12;99777.91;;;5.03;100.00
33280;BME280;20403;43.114;12.434;2023-11-19T05:04:42;99771.44;;;5.07;100.00
33280;BME280;20403;43.114;12.434;2023-11-19T05:07:09;99767.81;;;5.16;100.00
33280;BME280;20403;43.114;12.434;2023-11-19T05:09:34;99775.44;;;5.18;100.00
33280;BME280;20403;43.114;12.434;2023-11-19T05:12:00;99778.81;;;5.18;100.00
33280;BME280;20403;43.114;12.434;2023-11-19T05:14:27;99781.75;;;5.15;100.00
33280;BME280;20403;43.114;12.434;2023-11-19T05:16:53;99791.44;;;5.13;100.00
33280;BME280;20403;43.114;12.434;2023-11-19T05:19:18;99789.16;;;5.10;100.00
33280;BME280;20403;43.114;12.434;2023-11-19T05:21:44;99779.72;;;4.94;100.00
33280;BME280;20403;43.114;12.434;2023-11-19T05:24:09;99778.28;;;4.92;100.00
33280;BME280;20403;43.114;12.434;2023-11-19T05:26:34;99778.88;;;5.02;100.00
33280;BME280;20403;43.114;12.434;2023-11-19T05:29:00;99776.97;;;4.96;100.00
33280;BME280;20403;43.114;12.434;2023-11-19T05:31:25;99776.97;;;4.96;100.00
33280;BME280;20403;43.114;12.434;2023-11-19T05:33:51;99791.44;;;4.74;100.00
33280;BME280;20403;43.114;12.434;2023-11-19T05:36:17;99782.25;;;4.63;100.00
33280;BME280;20403;43.114;12.434;2023-11-19T05:38:42;99789.16;;;4.79;100.00
33280;BME280;20403;43.114;12.434;2023-11-19T05:41:09;99788.72;;;4.67;100.00
33280;BME280;20403;43.114;12.434;2023-11-19T05:43:35;99789.97;;;4.71;100.00
33280;BME280;20403;43.114;12.434;2023-11-19T05:46:00;99785.13;;;4.68;100.00
33280;BME280;20403;43.114;12.434;2023-11-19T05:48:29;99779.81;;;4.70;100.00
33280;BME280;20403;43.114;12.434;2023-11-19T05:50:54;99783.00;;;4.80;100.00
33280;BME280;20403;43.114;12.434;2023-11-19T05:53:20;99783.28;;;4.85;100.00
33280;BME280;20403;43.114;12.434;2023-11-19T05:55:45;99788.88;;;4.66;100.00
33280;BME280;20403;43.114;12.434;2023-11-19T05:58:29;99785.13;;;4.76;100.00
33280;BME280;20403;43.114;12.434;2023-11-19T06:00:58;99784.22;;;4.45;100.00
33280;BME280;20403;43.114;12.434;2023-11-19T06:03:26;99786.19;;;4.26;100.00
33280;BME280;20403;43.114;12.434;2023-11-19T06:05:51;99788.75;;;4.42;100.00
33280;BME280;20403;43.114;12.434;2023-11-19T06:08:17;99780.84;;;4.44;100.00
33280;BME280;20403;43.114;12.434;2023-11-19T06:10:44;99784.09;;;4.46;100.00
33280;BME280;20403;43.114;12.434;2023-11-19T06:13:11;99783.25;;;4.54;100.00
33280;BME280;20403;43.114;12.434;2023-11-19T06:15:37;99785.19;;;4.60;100.00
33280;BME280;20403;43.114;12.434;2023-11-19T06:18:02;99783.41;;;4.60;100.00
33280;BME280;20403;43.114;12.434;2023-11-19T06:20:32;99788.38;;;4.62;100.00
33280;BME280;20403;43.114;12.434;2023-11-19T06:22:58;99786.13;;;4.67;100.00
33280;BME280;20403;43.114;12.434;2023-11-19T06:25:24;99786.44;;;4.72;100.00
33280;BME280;20403;43.114;12.434;2023-11-19T06:27:50;99791.38;;;4.82;100.00
33280;BME280;20403;43.114;12.434;2023-11-19T06:30:15;99793.69;;;4.69;100.00
33280;BME280;20403;43.114;12.434;2023-11-19T06:32:41;99793.97;;;4.82;100.00
33280;BME280;20403;43.114;12.434;2023-11-19T06:35:07;99799.47;;;4.79;100.00
33280;BME280;20403;43.114;12.434;2023-11-19T06:37:33;99806.00;;;4.58;100.00
33280;BME280;20403;43.114;12.434;2023-11-19T06:39:59;99801.72;;;4.82;100.00
33280;BME280;20403;43.114;12.434;2023-11-19T06:42:25;99800.94;;;4.81;100.00
33280;BME280;20403;43.114;12.434;2023-11-19T06:44:50;99804.44;;;4.89;100.00
33280;BME280;20403;43.114;12.434;2023-11-19T06:47:17;99799.56;;;5.02;100.00
33280;BME280;20403;43.114;12.434;2023-11-19T06:49:45;99795.91;;;4.88;100.00
33280;BME280;20403;43.114;12.434;2023-11-19T06:52:10;99792.81;;;4.93;100.00
33280;BME280;20403;43.114;12.434;2023-11-19T06:54:38;99790.31;;;5.08;100.00
33280;BME280;20403;43.114;12.434;2023-11-19T06:57:04;99798.38;;;5.13;100.00
33280;BME280;20403;43.114;12.434;2023-11-19T06:59:30;99792.44;;;5.04;100.00
33280;BME280;20403;43.114;12.434;2023-11-19T07:01:56;99780.72;;;4.85;100.00
33280;BME280;20403;43.114;12.434;2023-11-19T07:04:21;99787.94;;;4.98;100.00
33280;BME280;20403;43.114;12.434;2023-11-19T07:06:47;99785.91;;;5.24;100.00
33280;BME280;20403;43.114;12.434;2023-11-19T07:09:13;99785.28;;;5.45;100.00
33280;BME280;20403;43.114;12.434;2023-11-19T07:11:40;99784.25;;;5.32;100.00
33280;BME280;20403;43.114;12.434;2023-11-19T07:14:09;99791.03;;;5.56;100.00
33280;BME280;20403;43.114;12.434;2023-11-19T07:16:35;99780.16;;;5.60;100.00
33280;BME280;20403;43.114;12.434;2023-11-19T07:19:02;99789.84;;;5.89;100.00
33280;BME280;20403;43.114;12.434;2023-11-19T07:21:28;99785.94;;;6.31;100.00
33280;BME280;20403;43.114;12.434;2023-11-19T07:23:56;99791.94;;;6.77;100.00
33280;BME280;20403;43.114;12.434;2023-11-19T07:26:22;99784.28;;;7.20;100.00
33280;BME280;20403;43.114;12.434;2023-11-19T07:28:49;99783.75;;;7.24;100.00
33280;BME280;20403;43.114;12.434;2023-11-19T07:31:14;99781.25;;;7.16;100.00
33280;BME280;20403;43.114;12.434;2023-11-19T07:33:40;99784.31;;;7.05;100.00
33280;BME280;20403;43.114;12.434;2023-11-19T07:36:08;99781.91;;;7.03;100.00
33280;BME280;20403;43.114;12.434;2023-11-19T07:38:34;99785.03;;;6.99;100.00
33280;BME280;20403;43.114;12.434;2023-11-19T07:41:00;99780.66;;;6.99;100.00
33280;BME280;20403;43.114;12.434;2023-11-19T07:43:26;99781.91;;;7.03;100.00
33280;BME280;20403;43.114;12.434;2023-11-19T07:45:51;99779.75;;;7.07;100.00
33280;BME280;20403;43.114;12.434;2023-11-19T07:48:16;99766.59;;;7.23;100.00
33280;BME280;20403;43.114;12.434;2023-11-19T07:50:43;99780.16;;;7.25;100.00
33280;BME280;20403;43.114;12.434;2023-11-19T07:53:08;99770.00;;;7.45;100.00
33280;BME280;20403;43.114;12.434;2023-11-19T07:55:34;99771.47;;;7.76;100.00
33280;BME280;20403;43.114;12.434;2023-11-19T07:57:59;99768.44;;;7.94;100.00
33280;BME280;20403;43.114;12.434;2023-11-19T08:00:25;99772.81;;;7.93;100.00
33280;BME280;20403;43.114;12.434;2023-11-19T08:02:50;99771.25;;;7.99;100.00
33280;BME280;20403;43.114;12.434;2023-11-19T08:05:15;99774.75;;;8.13;100.00
33280;BME280;20403;43.114;12.434;2023-11-19T08:07:41;99774.28;;;8.31;100.00
33280;BME280;20403;43.114;12.434;2023-11-19T08:10:07;99774.81;;;8.19;100.00
33280;BME280;20403;43.114;12.434;2023-11-19T08:12:35;99786.53;;;8.37;100.00
33280;BME280;20403;43.114;12.434;2023-11-19T08:15:02;99792.97;;;8.41;100.00
33280;BME280;20403;43.114;12.434;2023-11-19T08:17:27;99793.41;;;8.45;100.00
33280;BME280;20403;43.114;12.434;2023-11-19T08:19:53;99790.00;;;8.44;100.00
33280;BME280;20403;43.114;12.434;2023-11-19T08:22:18;99787.16;;;8.39;100.00
33280;BME280;20403;43.114;12.434;2023-11-19T08:24:44;99792.03;;;8.49;100.00
33280;BME280;20403;43.114;12.434;2023-11-19T08:27:09;99798.44;;;8.46;100.00
33280;BME280;20403;43.114;12.434;2023-11-19T08:29:35;99800.03;;;8.47;100.00
33280;BME280;20403;43.114;12.434;2023-11-19T08:32:03;99795.94;;;8.38;100.00
33280;BME280;20403;43.114;12.434;2023-11-19T08:34:29;99800.16;;;8.39;100.00
33280;BME280;20403;43.114;12.434;2023-11-19T08:36:55;99808.81;;;8.46;100.00
33280;BME280;20403;43.114;12.434;2023-11-19T08:39:21;99798.53;;;8.38;100.00
33280;BME280;20403;43.114;12.434;2023-11-19T08:41:47;99800.63;;;8.49;100.00
33280;BME280;20403;43.114;12.434;2023-11-19T08:44:13;99798.88;;;8.56;100.00
33280;BME280;20403;43.114;12.434;2023-11-19T08:46:39;99797.06;;;8.57;100.00
33280;BME280;20403;43.114;12.434;2023-11-19T08:49:05;99799.94;;;8.69;100.00
33280;BME280;20403;43.114;12.434;2023-11-19T08:51:31;99798.97;;;8.70;100.00
33280;BME280;20403;43.114;12.434;2023-11-19T08:53:56;99796.63;;;8.81;100.00
33280;BME280;20403;43.114;12.434;2023-11-19T08:56:22;99795.81;;;8.81;100.00
33280;BME280;20403;43.114;12.434;2023-11-19T08:58:48;99794.09;;;8.95;100.00
33280;BME280;20403;43.114;12.434;2023-11-19T09:01:13;99795.50;;;8.97;100.00
33280;BME280;20403;43.114;12.434;2023-11-19T09:03:39;99793.06;;;8.96;100.00
33280;BME280;20403;43.114;12.434;2023-11-19T09:06:04;99801.09;;;9.01;100.00
33280;BME280;20403;43.114;12.434;2023-11-19T09:08:30;99800.69;;;8.97;100.00
33280;BME280;20403;43.114;12.434;2023-11-19T09:10:55;99794.13;;;9.01;100.00
33280;BME280;20403;43.114;12.434;2023-11-19T09:13:20;99800.91;;;9.02;100.00
33280;BME280;20403;43.114;12.434;2023-11-19T09:15:46;99812.31;;;9.01;100.00
33280;BME280;20403;43.114;12.434;2023-11-19T09:18:11;99819.31;;;9.01;100.00
33280;BME280;20403;43.114;12.434;2023-11-19T09:20:37;99816.94;;;9.06;100.00
33280;BME280;20403;43.114;12.434;2023-11-19T09:23:06;99817.84;;;9.27;100.00
33280;BME280;20403;43.114;12.434;2023-11-19T09:25:31;99814.44;;;9.39;100.00
33280;BME280;20403;43.114;12.434;2023-11-19T09:27:57;99810.72;;;9.62;100.00
33280;BME280;20403;43.114;12.434;2023-11-19T09:30:22;99807.72;;;9.72;100.00
33280;BME280;20403;43.114;12.434;2023-11-19T09:32:48;99814.72;;;9.71;100.00
33280;BME280;20403;43.114;12.434;2023-11-19T09:35:13;99812.91;;;9.65;100.00
33280;BME280;20403;43.114;12.434;2023-11-19T09:37:40;99802.31;;;9.73;100.00
33280;BME280;20403;43.114;12.434;2023-11-19T09:40:07;99801.91;;;9.76;100.00
33280;BME280;20403;43.114;12.434;2023-11-19T09:42:45;99801.31;;;9.87;100.00
33280;BME280;20403;43.114;12.434;2023-11-19T09:45:17;99799.53;;;9.95;100.00
33280;BME280;20403;43.114;12.434;2023-11-19T09:47:46;99800.13;;;10.10;100.00
33280;BME280;20403;43.114;12.434;2023-11-19T09:50:16;99799.16;;;10.31;100.00
33280;BME280;20403;43.114;12.434;2023-11-19T09:52:42;99804.75;;;10.21;100.00
33280;BME280;20403;43.114;12.434;2023-11-19T09:55:08;99802.53;;;10.18;100.00
33280;BME280;20403;43.114;12.434;2023-11-19T09:57:34;99794.09;;;10.16;100.00
33280;BME280;20403;43.114;12.434;2023-11-19T10:00:03;99785.69;;;10.21;100.00
33280;BME280;20403;43.114;12.434;2023-11-19T10:02:31;99784.47;;;10.23;100.00
33280;BME280;20403;43.114;12.434;2023-11-19T10:04:59;99781.09;;;10.29;100.00
33280;BME280;20403;43.114;12.434;2023-11-19T10:07:26;99772.28;;;10.30;100.00
33280;BME280;20403;43.114;12.434;2023-11-19T10:09:51;99771.25;;;10.38;100.00
33280;BME280;20403;43.114;12.434;2023-11-19T10:12:16;99773.63;;;10.60;100.00
33280;BME280;20403;43.114;12.434;2023-11-19T10:14:42;99759.34;;;10.62;100.00
33280;BME280;20403;43.114;12.434;2023-11-19T10:17:08;99750.91;;;10.73;100.00
33280;BME280;20403;43.114;12.434;2023-11-19T10:19:34;99751.28;;;10.84;100.00
33280;BME280;20403;43.114;12.434;2023-11-19T10:22:04;99756.88;;;10.87;100.00
33280;BME280;20403;43.114;12.434;2023-11-19T10:24:31;99751.97;;;11.04;100.00
33280;BME280;20403;43.114;12.434;2023-11-19T10:26:59;99742.31;;;11.11;100.00
33280;BME280;20403;43.114;12.434;2023-11-19T10:29:24;99745.69;;;11.19;100.00
33280;BME280;20403;43.114;12.434;2023-11-19T10:31:57;99735.25;;;11.19;100.00
33280;BME280;20403;43.114;12.434;2023-11-19T10:34:27;99732.19;;;11.28;100.00
33280;BME280;20403;43.114;12.434;2023-11-19T10:36:52;99721.91;;;11.33;100.00
33280;BME280;20403;43.114;12.434;2023-11-19T10:39:18;99715.69;;;11.34;100.00
33280;BME280;20403;43.114;12.434;2023-11-19T10:41:44;99721.97;;;11.52;100.00
33280;BME280;20403;43.114;12.434;2023-11-19T10:44:09;99718.03;;;11.68;100.00
33280;BME280;20403;43.114;12.434;2023-11-19T10:46:42;99713.81;;;11.67;100.00
33280;BME280;20403;43.114;12.434;2023-11-19T10:49:09;99701.53;;;11.74;100.00
33280;BME280;20403;43.114;12.434;2023-11-19T10:51:34;99700.44;;;11.82;100.00
33280;BME280;20403;43.114;12.434;2023-11-19T10:54:05;99700.78;;;11.92;100.00
33280;BME280;20403;43.114;12.434;2023-11-19T10:56:32;99701.34;;;11.94;100.00
33280;BME280;20403;43.114;12.434;2023-11-19T10:59:01;99695.88;;;12.02;100.00
33280;BME280;20403;43.114;12.434;2023-11-19T11:01:39;99687.13;;;12.08;100.00
33280;BME280;20403;43.114;12.434;2023-11-19T11:04:15;99680.06;;;12.15;100.00
33280;BME280;20403;43.114;12.434;2023-11-19T11:06:45;99665.75;;;12.18;100.00
33280;BME280;20403;43.114;12.434;2023-11-19T11:09:13;99670.75;;;12.19;100.00
33280;BME280;20403;43.114;12.434;2023-11-19T11:11:40;99672.28;;;12.27;100.00
33280;BME280;20403;43.114;12.434;2023-11-19T11:14:12;99670.31;;;12.41;100.00
33280;BME280;20403;43.114;12.434;2023-11-19T11:16:43;99666.16;;;12.52;100.00
33280;BME280;20403;43.114;12.434;2023-11-19T11:19:10;99667.38;;;12.49;100.00
33280;BME280;20403;43.114;12.434;2023-11-19T11:21:39;99670.13;;;12.54;100.00
33280;BME280;20403;43.114;12.434;2023-11-19T11:30:16;99646.34;;;12.74;100.00
33280;BME280;20403;43.114;12.434;2023-11-19T11:35:38;99649.72;;;13.05;100.00
33280;BME280;20403;43.114;12.434;2023-11-19T11:38:08;99645.31;;;13.06;100.00
33280;BME280;20403;43.114;12.434;2023-11-19T11:40:34;99638.16;;;13.13;100.00
33280;BME280;20403;43.114;12.434;2023-11-19T11:42:59;99644.78;;;13.27;100.00
33280;BME280;20403;43.114;12.434;2023-11-19T11:45:40;99646.88;;;13.37;100.00
33280;BME280;20403;43.114;12.434;2023-11-19T11:50:49;99645.97;;;13.43;100.00
33280;BME280;20403;43.114;12.434;2023-11-19T11:53:20;99643.34;;;13.43;100.00
33280;BME280;20403;43.114;12.434;2023-11-19T11:58:13;99646.75;;;13.32;100.00
33280;BME280;20403;43.114;12.434;2023-11-19T12:00:40;99643.69;;;13.35;100.00
33280;BME280;20403;43.114;12.434;2023-11-19T12:03:08;99641.84;;;13.35;100.00
33280;BME280;20403;43.114;12.434;2023-11-19T12:05:42;99648.78;;;13.30;100.00
33280;BME280;20403;43.114;12.434;2023-11-19T12:08:10;99637.84;;;13.33;100.00
33280;BME280;20403;43.114;12.434;2023-11-19T12:10:43;99629.00;;;13.34;100.00
33280;BME280;20403;43.114;12.434;2023-11-19T12:13:09;99627.53;;;13.38;100.00
33280;BME280;20403;43.114;12.434;2023-11-19T12:18:27;99621.94;;;13.46;100.00
33280;BME280;20403;43.114;12.434;2023-11-19T12:20:53;99617.16;;;13.43;100.00
33280;BME280;20403;43.114;12.434;2023-11-19T12:23:18;99614.88;;;13.58;100.00
33280;BME280;20403;43.114;12.434;2023-11-19T12:25:44;99610.31;;;13.65;100.00
33280;BME280;20403;43.114;12.434;2023-11-19T12:28:17;99612.81;;;13.72;100.00
33280;BME280;20403;43.114;12.434;2023-11-19T12:30:43;99607.25;;;13.69;100.00
33280;BME280;20403;43.114;12.434;2023-11-19T12:33:13;99607.47;;;13.67;100.00
33280;BME280;20403;43.114;12.434;2023-11-19T12:35:42;99600.53;;;13.73;100.00
33280;BME280;20403;43.114;12.434;2023-11-19T12:38:18;99602.56;;;13.71;100.00
33280;BME280;20403;43.114;12.434;2023-11-19T12:40:44;99601.66;;;13.65;100.00
33280;BME280;20403;43.114;12.434;2023-11-19T12:43:10;99596.88;;;13.62;100.00
33280;BME280;20403;43.114;12.434;2023-11-19T12:45:36;99603.84;;;13.68;100.00
33280;BME280;20403;43.114;12.434;2023-11-19T12:48:05;99602.31;;;13.72;100.00
33280;BME280;20403;43.114;12.434;2023-11-19T12:50:51;99597.91;;;13.73;100.00
33280;BME280;20403;43.114;12.434;2023-11-19T12:53:20;99589.19;;;13.84;100.00
33280;BME280;20403;43.114;12.434;2023-11-19T12:55:46;99585.66;;;13.90;100.00
33280;BME280;20403;43.114;12.434;2023-11-19T12:58:34;99585.19;;;13.93;100.00
33280;BME280;20403;43.114;12.434;2023-11-19T13:01:06;99591.25;;;13.94;100.00
33280;BME280;20403;43.114;12.434;2023-11-19T13:03:32;99578.13;;;14.05;100.00
33280;BME280;20403;43.114;12.434;2023-11-19T13:06:05;99589.34;;;14.18;100.00